Time;durP1;ratioP1;P1;durP2;ratioP2;P2;SDS_P1;SDS_P2;PMS_P1;PMS_P2;Temp;Humidity;BMP_temperature;BMP_pressure;BME280_temperature;BME280_humidity;BME280_pressure;Samples;Min_cycle;Max_cycle;Signal;HPM_P1;HPM_P2
2021/07/03 00:01:20;;;;;;;5.57;5.07;;;;;;;22.59;73.67;100259.13;4935069;27;102240;-63
2021/07/03 00:03:47;;;;;;;5.65;5.15;;;;;;;22.58;73.76;100252.00;4944991;28;103057;-63
2021/07/03 00:06:13;;;;;;;5.50;5.00;;;;;;;22.59;74.06;100250.81;4947715;27;103374;-63
2021/07/03 00:08:43;;;;;;;;;;;;;;;22.58;73.78;100252.00;4933296;28;103458;-63
2021/07/03 00:11:10;;;;;;;5.53;5.13;;;;;;;22.58;73.70;100249.22;4932653;27;102720;-63
2021/07/03 00:13:38;;;;;;;5.72;5.22;;;;;;;22.58;73.70;100251.19;4941728;27;103949;-63
2021/07/03 00:16:05;;;;;;;5.40;4.90;;;;;;;22.58;73.67;100257.53;4941724;27;103888;-63
2021/07/03 00:18:33;;;;;;;5.90;5.40;;;;;;;22.58;73.57;100252.00;4941145;27;102636;-63
2021/07/03 00:21:00;;;;;;;5.65;5.20;;;;;;;22.56;73.77;100254.31;4934044;27;102263;-63
2021/07/03 00:23:26;;;;;;;5.60;5.20;;;;;;;22.58;73.63;100263.09;4945971;27;102155;-63
2021/07/03 00:25:54;;;;;;;5.57;5.15;;;;;;;22.57;73.78;100255.91;4942383;27;104106;-63
2021/07/03 00:28:21;;;;;;;5.10;4.70;;;;;;;22.58;73.60;100248.41;4940883;27;102916;-63
2021/07/03 00:30:48;;;;;;;5.82;5.32;;;;;;;22.56;73.61;100243.22;4936576;27;103294;-63
2021/07/03 00:33:14;;;;;;;5.78;5.22;;;;;;;22.57;73.52;100250.38;4938967;27;102346;-62
2021/07/03 00:35:41;;;;;;;5.57;5.15;;;;;;;22.56;73.72;100254.31;4938110;27;103885;-62
2021/07/03 00:38:09;;;;;;;7.63;5.65;;;;;;;22.57;73.83;100260.66;4952012;27;102393;-62
2021/07/03 00:40:36;;;;;;;6.00;5.50;;;;;;;22.57;73.74;100264.22;4943647;27;102213;-63
2021/07/03 00:43:04;;;;;;;5.63;5.13;;;;;;;22.56;73.74;100262.63;4937618;27;102639;-62
2021/07/03 00:45:30;;;;;;;5.75;5.25;;;;;;;22.56;73.59;100254.31;4936902;27;103708;-63
2021/07/03 00:47:57;;;;;;;5.30;4.80;;;;;;;22.57;73.71;100255.09;4939534;27;102350;-62
2021/07/03 00:50:24;;;;;;;5.97;5.38;;;;;;;22.57;73.82;100255.09;4940966;27;102724;-63
2021/07/03 00:52:50;;;;;;;6.25;5.30;;;;;;;22.56;73.68;100254.31;4944870;27;106210;-63
2021/07/03 00:55:17;;;;;;;5.30;4.80;;;;;;;22.58;73.60;100256.75;4940255;27;103918;-63
2021/07/03 00:57:46;;;;;;;5.47;4.93;;;;;;;22.55;73.54;100247.16;4941829;27;103098;-63
2021/07/03 01:00:15;;;;;;;5.28;4.88;;;;;;;22.57;73.71;100249.56;4936863;27;102440;-63
2021/07/03 01:02:42;;;;;;;5.50;5.00;;;;;;;22.55;73.67;100239.66;4938124;27;102827;-63
2021/07/03 01:05:09;;;;;;;5.70;5.20;;;;;;;22.55;73.44;100241.63;4942887;27;103886;-63
2021/07/03 01:07:37;;;;;;;5.78;5.18;;;;;;;22.55;73.49;100238.84;4938340;27;102084;-63
2021/07/03 01:10:04;;;;;;;5.63;5.13;;;;;;;22.54;73.54;100240.03;4937647;27;102069;-63
2021/07/03 01:12:31;;;;;;;5.57;5.07;;;;;;;22.55;73.64;100233.31;4938054;27;102227;-63
2021/07/03 01:14:58;;;;;;;5.13;4.72;;;;;;;22.54;73.83;100240.81;4944170;27;103839;-63
2021/07/03 01:17:25;;;;;;;5.60;5.00;;;;;;;22.54;73.72;100240.03;4940972;27;102436;-63
2021/07/03 01:19:57;;;;;;;5.32;4.90;;;;;;;22.55;73.70;100233.31;4942895;27;102601;-63
2021/07/03 01:22:25;;;;;;;5.38;4.88;;;;;;;22.54;73.62;100240.03;4938832;27;102501;-63
2021/07/03 01:24:52;;;;;;;5.80;5.20;;;;;;;22.54;73.64;100240.81;4937442;27;103795;-63
2021/07/03 01:27:18;;;;;;;5.45;4.95;;;;;;;22.53;73.77;100232.84;4950044;27;102342;-63
2021/07/03 01:29:46;;;;;;;5.32;4.82;;;;;;;22.54;73.73;100237.25;4941276;27;103089;-63
2021/07/03 01:32:13;;;;;;;5.32;4.93;;;;;;;22.54;73.75;100240.81;4941849;27;102457;-63
2021/07/03 01:34:41;;;;;;;5.40;4.90;;;;;;;22.53;73.74;100244.75;4939213;27;103899;-63
2021/07/03 01:37:08;;;;;;;5.13;4.20;;;;;;;22.53;73.61;100235.63;4937687;27;102073;-63
2021/07/03 01:39:36;;;;;;;5.43;4.63;;;;;;;22.53;73.57;100238.41;4941630;27;102188;-62
2021/07/03 01:42:03;;;;;;;5.20;4.80;;;;;;;22.54;73.52;100249.13;4931972;27;102747;-63
2021/07/03 01:44:30;;;;;;;5.07;4.65;;;;;;;22.54;73.58;100240.03;4939424;27;103608;-63
2021/07/03 01:46:57;;;;;;;5.10;4.60;;;;;;;22.53;73.76;100238.41;4935078;27;102598;-63
2021/07/03 01:49:26;;;;;;;5.18;4.78;;;;;;;22.52;73.71;100234.81;4934946;27;102622;-63
2021/07/03 01:51:53;;;;;;;4.72;4.38;;;;;;;22.54;73.67;100231.69;4940408;27;102512;-63
2021/07/03 01:54:20;;;;;;;5.37;4.87;;;;;;;22.53;73.72;100243.94;4939835;28;103810;-63
2021/07/03 01:56:57;;;;;;;5.13;4.72;;;;;;;22.53;73.69;100249.50;4945848;27;102631;-63
2021/07/03 01:59:24;;;;;;;5.13;4.10;;;;;;;22.53;73.57;100246.72;4941248;27;102442;-63
2021/07/03 02:01:51;;;;;;;5.43;4.47;;;;;;;22.54;73.61;100240.03;4936773;27;103051;-63
2021/07/03 02:04:18;;;;;;;5.05;4.65;;;;;;;22.51;73.58;100238.78;4941409;27;102855;-63
2021/07/03 02:06:45;;;;;;;4.43;4.03;;;;;;;22.52;73.76;100236.78;4941798;27;102415;-62
2021/07/03 02:09:12;;;;;;;4.70;4.30;;;;;;;22.52;73.56;100236.78;4929813;27;102258;-63
2021/07/03 02:11:39;;;;;;;5.00;4.60;;;;;;;22.52;73.61;100239.56;4940087;27;102755;-63
2021/07/03 02:14:07;;;;;;;4.78;4.25;;;;;;;22.52;73.56;100236.78;4941469;27;104757;-62
2021/07/03 02:16:34;;;;;;;4.47;4.10;;;;;;;22.51;73.75;100227.69;4942588;27;102206;-63
2021/07/03 02:19:01;;;;;;;4.82;4.43;;;;;;;22.51;73.79;100238.78;4945549;27;102111;-63
2021/07/03 02:21:29;;;;;;;4.25;3.92;;;;;;;22.51;73.77;100235.19;4941365;27;102644;-63
2021/07/03 02:23:55;;;;;;;4.75;4.30;;;;;;;22.52;73.57;100236.78;4947363;27;103644;-63
2021/07/03 02:26:23;;;;;;;4.50;4.13;;;;;;;22.51;73.51;100232.44;4942491;27;102354;-63
2021/07/03 02:28:50;;;;;;;4.78;4.38;;;;;;;22.51;73.70;100235.19;4944415;27;102081;-63
2021/07/03 02:31:19;;;;;;;4.70;4.30;;;;;;;22.51;73.71;100226.88;4945637;28;102392;-63
2021/07/03 02:33:46;;;;;;;4.47;4.15;;;;;;;22.52;73.74;100225.72;4945427;27;104139;-63
2021/07/03 02:36:13;;;;;;;4.57;4.10;;;;;;;22.51;73.65;100229.66;4943705;27;102141;-63
2021/07/03 02:38:41;;;;;;;4.50;4.07;;;;;;;22.51;73.81;100224.91;4941060;27;102682;-63
2021/07/03 02:41:08;;;;;;;4.13;3.83;;;;;;;22.51;73.71;100226.88;4944584;27;102534;-63
2021/07/03 02:43:34;;;;;;;5.03;4.38;;;;;;;22.50;73.78;100223.31;4939701;28;104013;-63
2021/07/03 02:46:02;;;;;;;5.10;4.22;;;;;;;22.51;73.67;100215.78;4943852;27;102398;-63
2021/07/03 02:48:30;;;;;;;4.35;3.95;;;;;;;22.50;73.65;100216.94;4940491;27;102188;-63
2021/07/03 02:50:56;;;;;;;4.50;4.10;;;;;;;22.51;73.55;100218.56;4944552;27;102372;-63
2021/07/03 02:53:23;;;;;;;5.60;4.00;;;;;;;22.50;73.49;100223.31;4936770;27;104205;-63
2021/07/03 02:55:49;;;;;;;5.53;4.15;;;;;;;22.50;73.55;100222.47;4941468;27;102107;-63
2021/07/03 02:58:16;;;;;;;4.88;4.47;;;;;;;22.50;73.47;100228.03;4939331;27;102549;-62
2021/07/03 03:00:43;;;;;;;4.75;4.18;;;;;;;22.50;73.64;100233.56;4943220;27;102342;-63
2021/07/03 03:03:09;;;;;;;4.18;3.78;;;;;;;22.50;73.31;100233.56;4945955;27;102748;-62
2021/07/03 03:05:37;;;;;;;4.95;3.78;;;;;;;22.48;73.70;100245.03;4939644;27;101992;-63
2021/07/03 03:08:04;;;;;;;4.25;3.92;;;;;;;22.49;73.61;100237.53;4952486;27;102337;-63
2021/07/03 03:10:31;;;;;;;4.55;4.15;;;;;;;22.48;73.49;100239.50;4947039;27;104833;-63
2021/07/03 03:12:59;;;;;;;4.57;4.03;;;;;;;22.48;73.66;100245.03;4941900;27;103241;-61
2021/07/03 03:15:25;;;;;;;3.92;3.50;;;;;;;22.49;73.65;100248.63;4935270;27;102690;-63
2021/07/03 03:17:52;;;;;;;5.07;4.38;;;;;;;22.49;73.75;100243.88;4945532;27;102194;-63
2021/07/03 03:20:18;;;;;;;4.05;3.65;;;;;;;22.49;73.40;100237.53;4948904;27;102823;-63
2021/07/03 03:22:46;;;;;;;5.07;3.83;;;;;;;22.51;73.54;100240.75;4950095;27;103983;-65
2021/07/03 03:25:13;;;;;;;4.28;3.80;;;;;;;22.49;73.69;100241.09;4946788;27;102204;-63
2021/07/03 03:27:40;;;;;;;4.70;4.30;;;;;;;22.50;73.59;100244.66;4948726;27;102739;-63
2021/07/03 03:30:08;;;;;;;4.32;3.97;;;;;;;22.49;73.51;100254.16;4940047;28;102255;-63
2021/07/03 03:32:37;;;;;;;4.22;3.92;;;;;;;22.49;73.62;100259.69;4945281;27;103850;-63
2021/07/03 03:35:04;;;;;;;4.65;3.88;;;;;;;22.49;73.73;100248.63;4947529;27;102340;-63
2021/07/03 03:37:31;;;;;;;4.57;4.18;;;;;;;22.50;73.57;100250.22;4931591;27;102320;-63
2021/07/03 03:39:59;;;;;;;4.40;4.00;;;;;;;22.49;73.67;100254.16;4938061;27;102283;-63
2021/07/03 03:42:26;;;;;;;4.17;3.77;;;;;;;22.50;73.69;100244.66;4928355;27;103845;-63
2021/07/03 03:44:52;;;;;;;4.10;3.70;;;;;;;22.50;73.52;100250.22;4940211;27;102511;-64
2021/07/03 03:47:19;;;;;;;4.15;3.85;;;;;;;22.50;73.57;100250.22;4943996;27;102317;-63
2021/07/03 03:49:45;;;;;;;5.45;3.75;;;;;;;22.50;73.56;100245.50;4943956;27;102779;-63
2021/07/03 03:52:13;;;;;;;5.00;4.05;;;;;;;22.50;73.43;100237.19;4945448;27;104063;-63
2021/07/03 03:54:39;;;;;;;5.63;4.38;;;;;;;22.51;73.62;100240.75;4946185;27;102093;-63
2021/07/03 03:59:53;;;;;;;4.63;4.22;;;;;;;22.51;73.44;100240.75;4949834;27;102510;-63
2021/07/03 04:02:19;;;;;;;4.63;4.22;;;;;;;22.51;73.46;100246.28;4944582;27;104534;-62
2021/07/03 04:04:46;;;;;;;4.10;3.78;;;;;;;22.52;73.68;100239.56;4935660;27;103675;-63
2021/07/03 04:07:12;;;;;;;6.30;4.45;;;;;;;22.53;73.56;100241.16;4939106;27;102447;-63
2021/07/03 04:09:39;;;;;;;4.85;4.40;;;;;;;22.52;73.60;100247.88;4937325;27;102533;-63
2021/07/03 04:12:07;;;;;;;4.65;4.30;;;;;;;22.52;73.57;100247.88;4938856;27;103888;-63
2021/07/03 04:14:35;;;;;;;4.80;4.40;;;;;;;22.53;73.60;100255.84;4946732;27;102372;-63
2021/07/03 04:17:08;;;;;;;5.38;4.10;;;;;;;22.54;73.44;100245.56;4934102;27;102513;-63
2021/07/03 04:19:35;;;;;;;4.43;4.03;;;;;;;22.53;73.50;100252.25;4939171;27;102090;-63
2021/07/03 04:22:02;;;;;;;4.40;4.00;;;;;;;22.54;73.55;100251.13;4944149;27;103083;-63
2021/07/03 04:24:29;;;;;;;4.13;3.72;;;;;;;22.54;73.72;100251.13;4940858;28;102324;-63
2021/07/03 04:26:57;;;;;;;4.10;3.70;;;;;;;22.54;73.76;100245.56;4936347;27;102628;-63
2021/07/03 04:29:25;;;;;;;3.80;3.50;;;;;;;22.54;73.80;100251.91;4936348;27;102738;-62
2021/07/03 04:31:52;;;;;;;4.00;3.67;;;;;;;22.55;73.91;100247.16;4935905;27;104087;-64
2021/07/03 04:34:18;;;;;;;4.07;3.70;;;;;;;22.56;73.80;100243.22;4941566;27;102135;-62
2021/07/03 04:36:45;;;;;;;3.65;3.38;;;;;;;22.55;73.94;100247.16;4944407;27;102392;-62
2021/07/03 04:39:11;;;;;;;3.75;3.45;;;;;;;22.57;74.20;100244.00;4938301;27;102596;-63
2021/07/03 04:41:38;;;;;;;3.95;3.58;;;;;;;22.58;73.98;100246.44;4941166;27;104135;-63
2021/07/03 04:44:06;;;;;;;3.60;3.40;;;;;;;22.57;73.97;100250.38;4944506;27;102018;-63
2021/07/03 04:46:35;;;;;;;3.92;3.53;;;;;;;22.58;73.89;100240.91;4935285;27;103381;-62
2021/07/03 04:49:03;;;;;;;3.90;3.60;;;;;;;22.58;74.24;100252.00;4937593;27;102555;-63
2021/07/03 04:51:30;;;;;;;3.70;3.40;;;;;;;22.59;74.16;100250.81;4941953;27;102677;-62
2021/07/03 04:53:57;;;;;;;4.10;3.80;;;;;;;22.61;74.01;100262.34;4940169;27;102039;-62
2021/07/03 04:56:23;;;;;;;3.58;3.28;;;;;;;22.62;73.99;100263.97;4940279;27;102176;-63
2021/07/03 04:58:50;;;;;;;3.60;3.30;;;;;;;22.63;74.14;100265.56;4944333;27;102239;-63
2021/07/03 05:01:17;;;;;;;3.65;3.35;;;;;;;22.65;73.97;100271.56;4932748;27;103846;-63
2021/07/03 05:03:45;;;;;;;3.60;3.30;;;;;;;22.65;73.95;100271.56;4939688;27;103192;-63
2021/07/03 05:06:11;;;;;;;4.10;3.80;;;;;;;22.66;73.97;100264.84;4942851;27;102127;-63
2021/07/03 05:08:39;;;;;;;3.58;3.30;;;;;;;22.67;73.95;100255.34;4940690;27;102793;-62
2021/07/03 05:11:05;;;;;;;3.40;3.20;;;;;;;22.67;74.01;100263.66;4931441;27;103322;-62
2021/07/03 05:13:33;;;;;;;3.97;3.67;;;;;;;22.68;73.94;100262.47;4935518;27;102625;-63
2021/07/03 05:16:01;;;;;;;3.80;3.50;;;;;;;22.68;73.83;100265.25;4946777;27;102553;-63
2021/07/03 05:18:32;;;;;;;4.03;3.72;;;;;;;22.69;74.02;100261.34;4936137;27;102175;-62
2021/07/03 05:21:01;;;;;;;4.05;3.75;;;;;;;22.70;73.96;100270.47;4936408;27;104076;-63
2021/07/03 05:23:28;;;;;;;3.58;3.28;;;;;;;22.71;73.91;100258.97;4941602;27;102147;-62
2021/07/03 05:25:57;;;;;;;3.72;3.45;;;;;;;22.71;73.90;100264.53;4942750;27;103471;-63
2021/07/03 05:28:24;;;;;;;3.80;3.50;;;;;;;22.73;73.88;100264.19;4954682;27;102501;-64
2021/07/03 05:30:52;;;;;;;3.70;3.50;;;;;;;22.73;73.89;100258.63;4937194;27;104014;-64
2021/07/03 05:33:20;;;;;;;3.67;3.37;;;;;;;22.74;73.86;100255.47;4937323;27;102952;-62
2021/07/03 05:35:47;;;;;;;3.83;3.55;;;;;;;22.75;73.88;100268.19;4939716;27;102669;-62
2021/07/03 05:38:15;;;;;;;3.75;3.53;;;;;;;22.77;74.35;100268.63;4946613;27;103135;-62
2021/07/03 05:40:42;;;;;;;3.80;3.50;;;;;;;22.79;73.72;100263.53;4942372;27;103142;-62
2021/07/03 05:43:09;;;;;;;3.50;3.30;;;;;;;22.83;73.72;100262.78;4942001;27;102261;-63
2021/07/03 05:45:36;;;;;;;3.88;3.58;;;;;;;22.84;73.50;100258.84;4947868;27;102901;-62
2021/07/03 05:48:03;;;;;;;4.00;3.70;;;;;;;22.85;73.67;100266.00;4942704;27;102575;-62
2021/07/03 05:50:30;;;;;;;4.00;3.70;;;;;;;22.86;73.50;100262.84;4931905;27;102839;-63
2021/07/03 05:52:56;;;;;;;3.55;3.35;;;;;;;22.88;73.61;100276.38;4937722;27;102001;-63
2021/07/03 05:55:24;;;;;;;3.72;3.53;;;;;;;22.89;73.41;100266.88;4941909;27;102515;-62
2021/07/03 05:57:51;;;;;;;4.07;3.77;;;;;;;22.89;73.39;100262.13;4943073;27;102838;-63
2021/07/03 06:00:18;;;;;;;3.83;3.53;;;;;;;22.92;73.49;100260.63;4937116;27;103894;-63
2021/07/03 06:02:45;;;;;;;3.88;3.58;;;;;;;22.93;73.53;100256.69;4943732;27;102610;-62
2021/07/03 06:05:12;;;;;;;4.40;4.07;;;;;;;22.96;73.36;100255.94;4936490;27;102515;-62
2021/07/03 06:07:40;;;;;;;3.60;3.40;;;;;;;22.97;73.35;100252.00;4936392;27;102736;-62
2021/07/03 06:10:08;;;;;;;4.15;3.85;;;;;;;22.99;73.31;100260.78;4936645;27;102775;-62
2021/07/03 06:12:36;;;;;;;3.63;3.43;;;;;;;23.00;73.47;100262.38;4950095;27;102364;-62
2021/07/03 06:15:03;;;;;;;3.77;3.47;;;;;;;23.01;73.29;100252.91;4941645;27;102806;-63
2021/07/03 06:17:30;;;;;;;4.65;3.60;;;;;;;23.02;73.28;100257.25;4940482;27;102131;-62
2021/07/03 06:19:56;;;;;;;4.43;4.03;;;;;;;23.03;72.93;100253.31;4947528;27;104039;-62
2021/07/03 06:22:23;;;;;;;3.72;3.42;;;;;;;23.04;73.18;100252.13;4942927;27;102443;-63
2021/07/03 06:24:50;;;;;;;4.18;3.80;;;;;;;23.04;73.38;100257.69;4933875;28;102464;-63
2021/07/03 06:27:17;;;;;;;3.50;3.20;;;;;;;23.06;73.19;100249.81;4934162;27;102332;-63
2021/07/03 06:29:45;;;;;;;3.60;3.30;;;;;;;23.06;73.24;100249.81;4935560;27;104112;-63
2021/07/03 06:32:13;;;;;;;3.83;3.63;;;;;;;23.08;73.18;100255.81;4933512;27;102484;-62
2021/07/03 06:34:40;;;;;;;3.72;3.50;;;;;;;23.07;73.16;100251.41;4929467;27;102173;-63
2021/07/03 06:37:07;;;;;;;3.97;3.30;;;;;;;23.08;73.28;100246.66;4933177;27;102485;-63
2021/07/03 06:39:34;;;;;;;3.97;3.67;;;;;;;23.09;73.16;100243.53;4933914;27;102619;-63
2021/07/03 06:42:00;;;;;;;3.85;3.55;;;;;;;23.09;73.17;100240.75;4948470;27;102630;-62
2021/07/03 06:44:28;;;;;;;4.63;4.22;;;;;;;23.10;73.33;100238.78;4941716;27;102529;-63
2021/07/03 06:46:55;;;;;;;3.78;3.58;;;;;;;23.10;73.20;100239.56;4937167;27;103090;-63
2021/07/03 06:49:22;;;;;;;3.40;3.20;;;;;;;23.11;73.09;100234.81;4942950;27;104894;-63
2021/07/03 06:51:49;;;;;;;4.18;3.80;;;;;;;23.12;72.99;100237.25;4931968;27;102140;-63
2021/07/03 06:54:15;;;;;;;3.70;3.40;;;;;;;23.13;73.24;100243.59;4989690;27;101988;-63
2021/07/03 06:56:42;;;;;;;3.67;3.38;;;;;;;23.13;73.28;100233.28;4934021;27;102653;-62
2021/07/03 06:59:08;;;;;;;3.53;3.33;;;;;;;23.14;73.07;100239.63;4937552;27;103978;-62
2021/07/03 07:01:35;;;;;;;3.53;3.33;;;;;;;23.15;72.83;100239.28;4946043;27;102520;-62
2021/07/03 07:04:04;;;;;;;3.33;3.13;;;;;;;23.14;73.28;100234.88;4941613;27;102376;-62
2021/07/03 07:06:30;;;;;;;3.72;3.53;;;;;;;23.16;72.97;100237.31;4935767;27;102570;-63
2021/07/03 07:08:57;;;;;;;3.90;3.60;;;;;;;23.14;73.02;100234.88;4954635;27;104858;-62
2021/07/03 07:11:24;;;;;;;4.00;3.70;;;;;;;23.15;73.23;100230.13;4942122;27;102571;-63
2021/07/03 07:13:52;;;;;;;4.05;3.75;;;;;;;23.15;73.02;100228.19;4944055;27;103824;-62
2021/07/03 07:16:20;;;;;;;3.75;3.45;;;;;;;23.15;73.17;100233.75;4956141;27;102746;-62
2021/07/03 07:18:48;;;;;;;3.80;3.50;;;;;;;23.16;73.01;100228.97;4962075;27;104059;-62
2021/07/03 07:21:16;;;;;;;4.32;4.03;;;;;;;23.16;73.08;100232.56;4947409;27;102451;-62
2021/07/03 07:23:45;;;;;;;3.92;3.63;;;;;;;23.17;73.21;100217.50;4949195;27;102659;-62
2021/07/03 07:26:12;;;;;;;3.97;3.60;;;;;;;23.18;72.98;100224.66;4940480;27;103133;-62
2021/07/03 07:28:39;;;;;;;3.83;3.53;;;;;;;23.17;72.91;100228.59;4931627;27;104919;-63
2021/07/03 07:31:05;;;;;;;3.97;3.67;;;;;;;23.19;72.91;100219.94;4936252;27;102187;-62
2021/07/03 07:33:32;;;;;;;4.00;3.60;;;;;;;23.19;72.99;100229.06;4940511;27;102499;-62
2021/07/03 07:35:58;;;;;;;3.97;3.67;;;;;;;23.19;72.96;100223.50;4940421;27;102816;-63
2021/07/03 07:38:27;;;;;;;4.45;4.15;;;;;;;23.19;73.01;100217.94;4935708;27;102735;-62
2021/07/03 07:40:53;;;;;;;3.83;3.55;;;;;;;23.20;72.88;100214.00;4934503;27;102568;-62
2021/07/03 07:43:20;;;;;;;4.55;3.85;;;;;;;23.21;73.02;100221.13;4936807;27;102456;-62
2021/07/03 07:45:47;;;;;;;4.00;3.70;;;;;;;23.23;73.23;100226.34;4944548;27;102247;-62
2021/07/03 07:48:13;;;;;;;3.95;3.65;;;;;;;23.24;72.93;100225.97;4945133;27;104141;-61
2021/07/03 07:50:43;;;;;;;3.65;3.35;;;;;;;23.23;72.85;100224.38;4939633;27;102635;-62
2021/07/03 07:53:09;;;;;;;3.75;3.45;;;;;;;23.25;72.92;100229.53;4946626;27;102599;-62
2021/07/03 07:55:37;;;;;;;4.32;4.03;;;;;;;23.23;72.85;100224.38;4939583;27;104310;-62
2021/07/03 07:58:04;;;;;;;4.10;3.80;;;;;;;23.24;73.09;100223.19;4950027;27;103916;-62
2021/07/03 08:00:31;;;;;;;4.30;3.90;;;;;;;23.23;72.89;100229.91;4937386;28;102559;-62
2021/07/03 08:02:57;;;;;;;4.10;3.80;;;;;;;23.23;73.01;100238.25;4931875;27;102544;-62
2021/07/03 08:05:25;;;;;;;3.92;3.63;;;;;;;23.23;72.92;100227.13;4950463;27;102634;-63
2021/07/03 08:07:52;;;;;;;4.25;3.95;;;;;;;23.23;72.74;100238.25;4938794;27;103885;-62
2021/07/03 08:10:19;;;;;;;4.38;4.07;;;;;;;23.23;72.99;100249.34;4949135;27;102316;-62
2021/07/03 08:12:48;;;;;;;3.75;3.47;;;;;;;23.24;72.82;100259.28;4942937;27;102700;-62
2021/07/03 08:15:14;;;;;;;3.95;3.65;;;;;;;23.23;72.95;100249.34;4943516;27;102585;-61
2021/07/03 08:17:45;;;;;;;4.20;3.90;;;;;;;23.23;72.84;100243.78;4937584;28;104069;-62
2021/07/03 08:20:15;;;;;;;3.75;3.55;;;;;;;23.24;72.87;100250.94;4948580;27;102619;-62
2021/07/03 08:22:41;;;;;;;4.45;4.15;;;;;;;23.21;72.84;100239.78;4930019;27;102704;-62
2021/07/03 08:25:09;;;;;;;4.18;3.83;;;;;;;23.21;72.80;100251.69;4935877;27;102406;-62
2021/07/03 08:27:36;;;;;;;3.80;3.60;;;;;;;23.22;72.82;100246.91;4941629;27;103968;-62
2021/07/03 08:30:06;;;;;;;4.40;4.10;;;;;;;23.22;72.75;100249.69;4940619;27;102902;-62
2021/07/03 08:32:33;;;;;;;4.88;4.47;;;;;;;23.20;72.76;100238.97;4934408;27;103169;-63
2021/07/03 08:34:59;;;;;;;4.72;4.43;;;;;;;23.21;72.92;100245.31;4946342;27;102548;-62
2021/07/03 08:37:29;;;;;;;4.20;3.90;;;;;;;23.22;73.13;100238.59;4948509;27;105379;-63
2021/07/03 08:39:55;;;;;;;4.60;4.30;;;;;;;23.21;72.99;100254.44;4943333;27;104539;-62
2021/07/03 08:42:22;;;;;;;4.50;4.20;;;;;;;23.21;72.72;100248.91;4944114;27;102391;-62
2021/07/03 08:44:51;;;;;;;4.28;3.97;;;;;;;23.22;73.09;100255.25;4941448;27;102348;-62
2021/07/03 08:47:19;;;;;;;4.22;3.92;;;;;;;23.22;72.92;100258.03;4936530;27;103831;-62
2021/07/03 08:49:52;;;;;;;4.37;4.07;;;;;;;23.23;73.13;100271.56;4928071;27;102386;-63
2021/07/03 08:52:18;;;;;;;4.65;4.35;;;;;;;23.23;72.73;100277.09;4937874;27;103645;-63
2021/07/03 08:54:53;;;;;;;4.43;4.03;;;;;;;23.23;72.69;100271.56;4942005;27;102101;-62
2021/07/03 08:57:20;;;;;;;4.60;4.30;;;;;;;23.21;73.05;100268.34;4941285;27;103108;-63
2021/07/03 08:59:54;;;;;;;4.03;3.72;;;;;;;23.21;72.75;100267.53;4942929;27;102402;-63
2021/07/03 09:02:32;;;;;;;5.05;4.65;;;;;;;23.20;73.05;100263.97;4943485;27;102526;-63
2021/07/03 09:04:59;;;;;;;4.63;4.23;;;;;;;23.20;72.91;100268.72;4935646;27;102380;-62
2021/07/03 09:07:33;;;;;;;4.90;4.50;;;;;;;23.20;72.91;100266.72;4942527;27;103479;-63
2021/07/03 09:09:59;;;;;;;4.82;4.45;;;;;;;23.19;73.26;100273.47;4944335;27;102512;-62
2021/07/03 09:12:28;;;;;;;4.40;4.00;;;;;;;23.19;72.78;100264.34;4945009;27;102442;-64
2021/07/03 09:14:55;;;;;;;4.68;4.28;;;;;;;23.18;72.91;100263.50;4941500;27;102407;-63
2021/07/03 09:17:22;;;;;;;4.50;4.20;;;;;;;23.18;73.05;100257.16;4939777;27;104018;-62
2021/07/03 09:19:53;;;;;;;4.68;4.38;;;;;;;23.19;72.92;100265.13;4937559;27;102249;-62
2021/07/03 09:22:19;;;;;;;4.70;4.30;;;;;;;23.18;72.74;100269.06;4939137;27;102072;-62
2021/07/03 09:24:46;;;;;;;5.13;4.63;;;;;;;23.18;72.94;100260.72;4939853;27;103133;-63
2021/07/03 09:27:13;;;;;;;4.57;4.28;;;;;;;23.17;72.94;100255.56;4936100;27;103899;-63
2021/07/03 09:29:48;;;;;;;4.60;4.20;;;;;;;23.16;72.96;100254.75;4934629;27;102321;-63
2021/07/03 09:32:15;;;;;;;4.80;4.40;;;;;;;23.17;73.10;100273.00;4946471;27;102679;-63
2021/07/03 09:34:43;;;;;;;4.93;4.38;;;;;;;23.16;73.07;100260.31;4947242;27;103348;-62
2021/07/03 09:37:12;;;;;;;4.85;4.45;;;;;;;23.16;72.86;100265.88;4944497;27;104193;-63
2021/07/03 09:39:39;;;;;;;4.30;4.00;;;;;;;23.16;72.89;100267.84;4938588;27;102404;-63
2021/07/03 09:42:12;;;;;;;4.70;4.30;;;;;;;23.15;73.22;100258.72;4938629;27;102466;-63
2021/07/03 09:44:39;;;;;;;4.88;4.50;;;;;;;23.15;72.85;100261.50;4940464;27;102472;-63
2021/07/03 09:47:06;;;;;;;5.40;4.90;;;;;;;23.14;72.98;100259.06;4947593;27;104028;-63
2021/07/03 09:49:32;;;;;;;5.28;4.88;;;;;;;23.14;72.80;100254.31;4936256;27;102042;-62
2021/07/03 09:52:00;;;;;;;4.90;4.50;;;;;;;23.14;72.86;100251.53;4941899;27;102888;-63
2021/07/03 09:54:30;;;;;;;5.18;4.78;;;;;;;23.13;73.20;100251.91;4943280;27;102487;-63
2021/07/03 09:57:00;;;;;;;5.20;4.80;;;;;;;23.13;73.08;100261.03;4941581;27;103817;-62
2021/07/03 09:59:27;;;;;;;4.80;4.40;;;;;;;23.13;73.01;100258.28;4937578;27;102510;-63
2021/07/03 10:01:54;;;;;;;4.90;4.53;;;;;;;23.13;72.98;100263.81;4947504;27;102688;-63
2021/07/03 10:04:20;;;;;;;5.40;5.00;;;;;;;23.13;72.97;100263.03;4943642;28;102830;-63
2021/07/03 10:06:50;;;;;;;4.78;4.38;;;;;;;23.13;72.97;100261.03;4942715;28;104081;-63
2021/07/03 10:09:23;;;;;;;5.30;4.90;;;;;;;23.13;72.99;100271.34;4935934;27;102514;-63
2021/07/03 10:11:59;;;;;;;5.45;5.05;;;;;;;23.11;72.93;100268.94;4937068;27;102380;-62
2021/07/03 10:14:27;;;;;;;5.13;4.72;;;;;;;23.11;73.17;100268.94;4935526;27;102642;-63
2021/07/03 10:17:01;;;;;;;5.22;4.82;;;;;;;23.11;73.13;100273.69;4935694;27;102760;-62
2021/07/03 10:19:32;;;;;;;5.40;5.00;;;;;;;23.10;72.95;100278.44;4936959;27;102011;-62
2021/07/03 10:22:10;;;;;;;5.05;4.72;;;;;;;23.10;73.09;100274.84;4938453;27;102681;-63
2021/07/03 10:24:42;;;;;;;5.40;5.00;;;;;;;23.08;73.13;100268.84;4934754;27;102308;-63
2021/07/03 10:27:17;;;;;;;4.57;4.28;;;;;;;23.07;73.14;100273.59;4942725;28;103910;-62
2021/07/03 10:29:45;;;;;;;4.65;4.35;;;;;;;23.06;73.16;100274.78;4949910;27;102506;-63
2021/07/03 10:32:22;;;;;;;5.05;4.75;;;;;;;23.06;73.25;100272.00;4934281;27;102531;-63
2021/07/03 10:34:50;;;;;;;5.50;5.00;;;;;;;23.06;73.30;100282.31;4939294;27;102607;-63
2021/07/03 10:37:29;;;;;;;5.07;4.68;;;;;;;23.05;73.22;100273.19;4938643;27;103947;-63
2021/07/03 10:39:55;;;;;;;5.65;5.25;;;;;;;23.06;73.14;100272.00;4942902;27;102172;-62
2021/07/03 10:42:32;;;;;;;5.05;4.68;;;;;;;23.07;73.01;100281.13;4952214;27;102243;-63
2021/07/03 10:45:10;;;;;;;5.30;4.90;;;;;;;23.05;73.21;100275.97;4940847;28;102583;-62
2021/07/03 10:47:37;;;;;;;5.60;5.20;;;;;;;23.06;73.12;100279.53;4939003;27;103925;-63
2021/07/03 10:50:17;;;;;;;5.28;4.90;;;;;;;23.06;73.11;100271.22;4939177;27;102569;-63
2021/07/03 10:52:46;;;;;;;5.13;4.72;;;;;;;23.04;73.21;100266.00;4946629;27;102972;-62
2021/07/03 10:55:13;;;;;;;5.20;4.80;;;;;;;23.05;73.28;100266.84;4943475;27;102480;-63
2021/07/03 10:57:42;;;;;;;5.13;4.72;;;;;;;23.04;73.11;100254.91;4942604;27;103936;-63
2021/07/03 11:00:11;;;;;;;5.03;4.68;;;;;;;23.03;73.13;100256.88;4949001;27;102530;-63
2021/07/03 11:02:39;;;;;;;5.13;4.72;;;;;;;23.03;73.18;100256.09;4934643;27;102231;-63
2021/07/03 11:05:13;;;;;;;5.32;4.82;;;;;;;23.03;73.22;100256.09;4937027;27;102502;-63
2021/07/03 11:07:41;;;;;;;5.07;4.68;;;;;;;23.02;73.12;100260.03;4943259;27;104080;-63
2021/07/03 11:10:10;;;;;;;4.93;4.43;;;;;;;23.02;73.34;100249.75;4942520;27;103584;-63
2021/07/03 11:12:45;;;;;;;4.85;4.55;;;;;;;23.01;73.29;100256.47;4943225;27;102483;-63
2021/07/03 11:15:14;;;;;;;5.45;5.05;;;;;;;23.02;73.43;100251.72;4941493;27;102660;-63
2021/07/03 11:17:40;;;;;;;4.60;4.30;;;;;;;23.01;73.17;100253.69;4941160;27;103777;-63
2021/07/03 11:20:08;;;;;;;4.95;4.65;;;;;;;23.01;73.34;100252.91;4940170;27;102489;-64
2021/07/03 11:22:41;;;;;;;5.40;5.00;;;;;;;23.01;73.37;100252.91;4942515;27;102617;-63